createdAt,value
2023-05-05T00:00:01.026Z,10.07
2023-05-05T00:02:34.112Z,9.77
2023-05-05T00:05:03.657Z,7.82
2023-05-05T00:07:34.239Z,9.15
2023-05-05T00:10:10.975Z,6.57
2023-05-05T00:12:43.179Z,11.73
2023-05-05T00:15:13.750Z,9.35
2023-05-05T00:17:44.853Z,11.25
2023-05-05T00:20:15.817Z,16.25
2023-05-05T00:22:48.844Z,14.18
2023-05-05T00:25:20.093Z,12.15
2023-05-05T00:27:49.210Z,11.43
2023-05-05T00:30:23.499Z,10.93
2023-05-05T00:32:52.914Z,11.48
2023-05-05T00:35:21.989Z,10.48
2023-05-05T00:37:50.750Z,8.30
2023-05-05T00:40:20.602Z,8.32
2023-05-05T00:42:51.320Z,10.50
2023-05-05T00:45:26.381Z,9.82
2023-05-05T00:50:28.065Z,9.90
2023-05-05T00:53:08.216Z,5.60
2023-05-05T00:55:38.547Z,6.40
2023-05-05T00:58:07.246Z,6.95
2023-05-05T01:00:48.913Z,11.90
2023-05-05T01:03:19.399Z,10.98
2023-05-05T01:06:00.148Z,7.50
2023-05-05T01:08:41.741Z,12.85
2023-05-05T01:11:19.553Z,7.47
2023-05-05T01:13:57.861Z,8.93
2023-05-05T01:16:31.098Z,12.95
2023-05-05T01:19:12.745Z,7.78
2023-05-05T01:21:48.643Z,8.85
2023-05-05T01:24:52.175Z,8.57
2023-05-05T01:28:00.872Z,12.70
2023-05-05T01:31:00.399Z,10.80
2023-05-05T01:33:36.440Z,8.88
2023-05-05T01:36:09.416Z,9.43
2023-05-05T01:38:42.101Z,7.78
2023-05-05T01:41:19.709Z,11.55
2023-05-05T01:43:55.053Z,9.82
2023-05-05T01:46:28.200Z,6.05
2023-05-05T01:49:04.325Z,12.85
2023-05-05T01:51:34.943Z,8.88
2023-05-05T01:54:10.291Z,7.97
2023-05-05T01:56:43.703Z,8.98
2023-05-05T01:59:13.249Z,11.55
2023-05-05T02:01:44.805Z,5.88
2023-05-05T02:04:16.583Z,10.27
2023-05-05T02:06:52.675Z,8.00
2023-05-05T02:09:27.676Z,8.85
2023-05-05T02:11:59.604Z,7.28
2023-05-05T02:14:36.071Z,11.18
2023-05-05T02:17:09.651Z,10.70
2023-05-05T02:19:43.808Z,12.23
2023-05-05T02:22:15.703Z,11.38
2023-05-05T02:24:48.947Z,9.35
2023-05-05T02:27:23.961Z,13.25
2023-05-05T02:29:58.282Z,12.80
2023-05-05T02:32:33.397Z,14.20
2023-05-05T02:35:10.433Z,12.80
2023-05-05T02:37:48.437Z,9.68
2023-05-05T02:40:24.936Z,10.10
2023-05-05T02:42:58.437Z,9.82
2023-05-05T02:45:33.653Z,10.25
2023-05-05T02:48:04.540Z,8.52
2023-05-05T02:50:45.740Z,8.90
2023-05-05T02:53:27.351Z,7.78
2023-05-05T02:56:01.531Z,10.85
2023-05-05T02:58:43.556Z,7.93
2023-05-05T03:01:30.776Z,11.80
2023-05-05T03:04:08.403Z,12.75
2023-05-05T03:06:47.900Z,7.00
2023-05-05T03:09:28.765Z,11.90
2023-05-05T03:12:03.838Z,14.23
2023-05-05T03:14:42.461Z,9.02
2023-05-05T03:17:16.015Z,10.57
2023-05-05T03:19:46.471Z,9.77
2023-05-05T03:22:17.079Z,7.53
2023-05-05T03:24:51.561Z,10.70
2023-05-05T03:27:24.600Z,11.35
2023-05-05T03:29:53.903Z,10.00
2023-05-05T03:32:25.856Z,8.93
2023-05-05T03:34:58.002Z,11.15
2023-05-05T03:37:33.429Z,10.43
2023-05-05T03:40:02.441Z,8.57
2023-05-05T03:42:34.418Z,12.95
2023-05-05T03:45:03.635Z,10.73
2023-05-05T03:47:33.768Z,12.50
2023-05-05T03:50:05.166Z,12.88
2023-05-05T03:52:40.025Z,11.13
2023-05-05T03:55:11.230Z,12.33
2023-05-05T03:57:40.086Z,13.15
2023-05-05T04:00:11.922Z,10.80
2023-05-05T04:02:48.143Z,14.38
2023-05-05T04:05:19.953Z,11.32
2023-05-05T04:07:50.932Z,13.73
2023-05-05T04:10:19.845Z,11.40
2023-05-05T04:12:49.492Z,14.50
2023-05-05T04:15:18.655Z,14.30
2023-05-05T04:17:47.972Z,13.07
2023-05-05T04:20:18.364Z,11.98
2023-05-05T04:22:47.723Z,15.63
2023-05-05T04:25:18.404Z,12.13
2023-05-05T04:27:50.045Z,12.07
2023-05-05T04:30:19.735Z,10.20
2023-05-05T04:32:48.816Z,14.43
2023-05-05T04:35:18.550Z,13.38
2023-05-05T04:37:47.146Z,13.20
2023-05-05T04:40:15.715Z,10.18
2023-05-05T04:42:52.902Z,18.90
2023-05-05T04:45:21.973Z,15.60
2023-05-05T04:47:50.843Z,15.73
2023-05-05T04:50:19.744Z,16.83
2023-05-05T04:52:50.257Z,12.45
2023-05-05T04:55:20.667Z,13.98
2023-05-05T04:57:51.816Z,12.82
2023-05-05T05:00:20.664Z,11.65
2023-05-05T05:02:49.260Z,15.50
2023-05-05T05:05:18.431Z,14.60
2023-05-05T05:07:47.616Z,12.27
2023-05-05T05:10:16.323Z,11.98
2023-05-05T05:12:48.239Z,16.98
2023-05-05T05:15:18.092Z,14.27
2023-05-05T05:17:46.996Z,13.48
2023-05-05T05:20:17.614Z,25.10
2023-05-05T05:22:46.388Z,12.20
2023-05-05T05:25:18.570Z,16.65
2023-05-05T05:27:58.566Z,13.93
2023-05-05T05:30:42.919Z,12.20
2023-05-05T05:33:13.027Z,12.40
2023-05-05T05:35:44.042Z,14.13
2023-05-05T05:38:13.511Z,14.05
2023-05-05T05:40:42.398Z,16.15
2023-05-05T05:46:17.370Z,10.93
2023-05-05T05:48:46.259Z,14.63
2023-05-05T05:51:16.506Z,15.75
2023-05-05T05:53:45.641Z,12.45
2023-05-05T05:56:22.138Z,10.73
2023-05-05T05:58:52.496Z,8.45
2023-05-05T06:01:23.576Z,10.52
2023-05-05T06:03:52.837Z,15.75
2023-05-05T06:06:22.900Z,13.75
2023-05-05T06:08:52.418Z,19.75
2023-05-05T06:11:23.674Z,11.20
2023-05-05T06:13:54.898Z,8.55
2023-05-05T06:16:27.145Z,8.80
2023-05-05T06:18:56.607Z,11.50
2023-05-05T06:21:25.553Z,11.68
2023-05-05T06:23:57.442Z,11.75
2023-05-05T06:26:28.620Z,17.70
2023-05-05T06:28:58.881Z,9.20
2023-05-05T06:34:33.103Z,11.18
2023-05-05T06:37:05.478Z,7.72
2023-05-05T06:48:41.518Z,8.43
2023-05-05T06:53:39.222Z,7.55
2023-05-05T06:56:09.126Z,8.40
2023-05-05T06:58:38.239Z,6.72
2023-05-05T07:01:07.706Z,7.78
2023-05-05T07:03:38.994Z,8.50
2023-05-05T07:06:07.366Z,9.93
2023-05-05T07:08:36.319Z,9.65
2023-05-05T07:11:05.220Z,11.98
2023-05-05T07:13:34.014Z,7.65
2023-05-05T07:16:02.714Z,10.93
2023-05-05T07:18:32.748Z,7.53
2023-05-05T07:21:02.997Z,9.18
2023-05-05T07:23:31.345Z,6.20
2023-05-05T07:26:03.001Z,10.52
2023-05-05T07:28:33.266Z,6.88
2023-05-05T07:31:02.164Z,6.57
2023-05-05T07:33:31.992Z,7.97
2023-05-05T07:36:03.387Z,5.68
2023-05-05T07:38:32.190Z,7.28
2023-05-05T07:41:00.963Z,9.88
2023-05-05T07:43:30.031Z,6.25
2023-05-05T07:45:59.411Z,7.95
2023-05-05T07:48:30.387Z,7.25
2023-05-05T07:51:03.755Z,7.78
2023-05-05T07:53:34.041Z,7.10
2023-05-05T07:56:04.848Z,9.52
2023-05-05T07:58:33.119Z,8.27
2023-05-05T08:01:06.743Z,9.73
2023-05-05T08:03:35.444Z,8.93
2023-05-05T08:06:10.297Z,7.75
2023-05-05T08:08:40.105Z,7.78
2023-05-05T08:11:08.676Z,5.80
2023-05-05T08:13:38.637Z,5.97
2023-05-05T08:16:08.280Z,6.28
2023-05-05T08:18:38.009Z,7.43
2023-05-05T08:21:06.574Z,6.57
2023-05-05T08:23:35.961Z,7.78
2023-05-05T08:26:07.574Z,8.50
2023-05-05T08:28:36.888Z,8.45
2023-05-05T08:31:05.896Z,10.45
2023-05-05T08:33:52.129Z,6.03
2023-05-05T08:36:20.695Z,10.43
2023-05-05T08:38:51.130Z,8.52
2023-05-05T08:41:21.916Z,6.38
2023-05-05T08:43:50.816Z,5.57
2023-05-05T08:46:19.472Z,10.05
2023-05-05T08:48:50.894Z,6.22
2023-05-05T08:51:24.242Z,5.93
2023-05-05T08:54:02.472Z,7.63
2023-05-05T08:56:35.802Z,4.70
2023-05-05T09:01:36.928Z,6.45
2023-05-05T09:04:08.120Z,6.72
2023-05-05T09:06:37.290Z,5.80
2023-05-05T09:09:06.656Z,4.85
2023-05-05T09:11:38.147Z,5.18
2023-05-05T09:14:06.967Z,7.60
2023-05-05T09:16:35.692Z,5.18
2023-05-05T09:19:07.491Z,3.72
2023-05-05T09:21:38.430Z,9.02
2023-05-05T09:24:12.074Z,4.00
2023-05-05T09:29:20.160Z,4.50
2023-05-05T09:32:06.083Z,3.88
2023-05-05T09:34:36.628Z,5.28
2023-05-05T09:37:06.576Z,4.60
2023-05-05T09:39:36.085Z,4.72
2023-05-05T09:42:08.679Z,3.95
2023-05-05T09:44:39.016Z,7.63
2023-05-05T09:47:18.471Z,4.03
2023-05-05T09:50:03.838Z,3.92
2023-05-05T09:52:32.850Z,4.72
2023-05-05T09:55:04.091Z,2.53
2023-05-05T09:57:36.290Z,1.65
2023-05-05T10:00:11.145Z,4.90
2023-05-05T10:02:40.793Z,2.17
2023-05-05T10:05:14.289Z,1.50
2023-05-05T10:07:44.083Z,2.05
2023-05-05T10:10:17.180Z,7.65
2023-05-05T10:12:53.492Z,4.47
2023-05-05T10:15:22.873Z,6.18
2023-05-05T10:18:06.706Z,4.28
2023-05-05T10:20:37.651Z,3.13
2023-05-05T10:23:09.637Z,3.97
2023-05-05T10:25:48.283Z,1.48
2023-05-05T10:28:25.212Z,5.35
2023-05-05T10:31:00.080Z,3.80
2023-05-05T10:33:37.544Z,3.42
2023-05-05T10:36:07.983Z,3.22
2023-05-05T10:38:39.977Z,7.40
2023-05-05T10:41:13.159Z,6.05
2023-05-05T10:43:44.192Z,4.57
2023-05-05T10:46:12.863Z,5.05
2023-05-05T10:48:48.276Z,3.33
2023-05-05T10:51:39.408Z,2.88
2023-05-05T10:54:18.253Z,1.73
2023-05-05T10:56:51.281Z,2.67
2023-05-05T10:59:48.054Z,4.05
2023-05-05T11:02:29.305Z,3.65
2023-05-05T11:05:21.201Z,1.73
2023-05-05T11:07:53.830Z,7.60
2023-05-05T11:10:23.333Z,4.40
2023-05-05T11:13:22.788Z,5.30
2023-05-05T11:15:55.550Z,1.58
2023-05-05T11:18:43.584Z,3.10
2023-05-05T11:21:17.562Z,2.75
2023-05-05T11:23:54.190Z,4.70
2023-05-05T11:26:59.230Z,0.75
2023-05-05T11:32:20.265Z,4.72
2023-05-05T11:35:05.174Z,2.13
2023-05-05T11:40:57.946Z,5.00
2023-05-05T11:43:27.457Z,1.77
2023-05-05T11:46:12.853Z,0.93
2023-05-05T11:48:50.148Z,1.17
2023-05-05T11:51:20.093Z,2.75
2023-05-05T11:53:50.743Z,1.73
2023-05-05T11:56:22.625Z,1.52
2023-05-05T11:59:11.094Z,2.53
2023-05-05T12:01:42.551Z,1.45
2023-05-05T12:04:17.137Z,2.17
2023-05-05T12:06:46.405Z,3.03
2023-05-05T12:09:17.027Z,1.50
2023-05-05T12:11:57.452Z,2.00
2023-05-05T12:14:29.397Z,0.80
2023-05-05T12:16:59.208Z,2.95
2023-05-05T12:19:33.766Z,0.75
2023-05-05T12:22:03.237Z,0.85
2023-05-05T12:24:33.386Z,2.67
2023-05-05T12:27:09.553Z,4.10
2023-05-05T12:29:39.082Z,2.38
2023-05-05T12:32:07.645Z,2.05
2023-05-05T12:34:38.070Z,2.85
2023-05-05T12:37:07.361Z,1.08
2023-05-05T12:39:38.715Z,2.80
2023-05-05T12:42:08.184Z,3.17
2023-05-05T12:44:38.278Z,1.55
2023-05-05T12:47:07.819Z,1.90
2023-05-05T12:49:49.670Z,3.40
2023-05-05T12:52:19.322Z,2.28
2023-05-05T12:54:56.263Z,3.35
2023-05-05T12:57:25.031Z,1.38
2023-05-05T12:59:54.745Z,4.10
2023-05-05T13:02:36.120Z,2.40
2023-05-05T13:05:08.765Z,1.77
2023-05-05T13:07:39.164Z,2.53
2023-05-05T13:10:10.917Z,3.00
2023-05-05T13:12:39.625Z,1.20
2023-05-05T13:15:10.153Z,5.10
2023-05-05T13:17:42.423Z,1.67
2023-05-05T13:20:14.721Z,0.50
2023-05-05T13:22:44.450Z,0.47
2023-05-05T13:25:12.751Z,2.05
2023-05-05T13:27:43.351Z,0.90
2023-05-05T13:30:13.034Z,0.63
2023-05-05T13:32:42.890Z,3.70
2023-05-05T13:35:15.449Z,2.55
2023-05-05T13:37:47.679Z,2.30
2023-05-05T13:40:16.818Z,0.32
2023-05-05T13:42:45.231Z,1.38
2023-05-05T13:45:15.397Z,3.13
2023-05-05T13:47:46.536Z,0.82
2023-05-05T13:50:16.047Z,3.47
2023-05-05T13:52:44.775Z,4.75
2023-05-05T13:55:14.702Z,2.72
2023-05-05T13:57:43.548Z,0.68
2023-05-05T14:00:12.936Z,0.90
2023-05-05T14:02:42.429Z,5.13
2023-05-05T14:05:11.967Z,1.08
2023-05-05T14:07:44.799Z,1.92
2023-05-05T14:10:14.932Z,0.65
2023-05-05T14:12:44.680Z,1.27
2023-05-05T14:15:13.309Z,0.85
2023-05-05T14:17:42.238Z,2.95
2023-05-05T14:20:11.281Z,0.85
2023-05-05T14:22:42.194Z,0.77
2023-05-05T14:25:10.584Z,1.52
2023-05-05T14:27:39.008Z,2.42
2023-05-05T14:30:10.426Z,3.08
2023-05-05T14:32:39.102Z,2.20
2023-05-05T14:35:09.742Z,3.88
2023-05-05T14:37:38.832Z,3.67
2023-05-05T14:40:12.754Z,2.65
2023-05-05T14:42:41.409Z,1.35
2023-05-05T14:45:11.445Z,2.08
2023-05-05T14:47:41.403Z,1.38
2023-05-05T14:50:11.796Z,2.78
2023-05-05T14:52:40.707Z,0.93
2023-05-05T14:55:14.507Z,1.55
2023-05-05T14:57:43.624Z,1.13
2023-05-05T15:00:13.337Z,2.75
2023-05-05T15:02:45.183Z,3.50
2023-05-05T15:05:13.873Z,2.17
2023-05-05T15:07:42.996Z,1.92
2023-05-05T15:10:17.289Z,3.92
2023-05-05T15:12:46.873Z,5.65
2023-05-05T15:15:15.941Z,6.80
2023-05-05T15:17:44.883Z,6.30
2023-05-05T15:20:15.504Z,2.10
2023-05-05T15:22:44.141Z,3.78
2023-05-05T15:25:16.245Z,1.50
2023-05-05T15:27:45.660Z,7.90
2023-05-05T15:30:15.982Z,3.60
2023-05-05T15:32:44.857Z,4.05
2023-05-05T15:35:13.678Z,5.32
2023-05-05T15:37:42.533Z,2.83
2023-05-05T15:40:14.577Z,2.45
2023-05-05T15:42:48.355Z,2.78
2023-05-05T15:45:20.334Z,1.98
2023-05-05T15:47:50.865Z,2.90
2023-05-05T15:50:20.341Z,2.50
2023-05-05T15:52:50.042Z,2.95
2023-05-05T15:55:21.219Z,1.60
2023-05-05T15:57:51.605Z,2.05
2023-05-05T16:00:23.381Z,1.27
2023-05-05T16:02:52.921Z,2.88
2023-05-05T16:05:23.902Z,1.50
2023-05-05T16:07:54.107Z,1.00
2023-05-05T16:10:26.394Z,1.10
2023-05-05T16:12:57.571Z,0.30
2023-05-05T16:15:28.466Z,2.33
2023-05-05T16:17:57.524Z,0.63
2023-05-05T16:20:26.587Z,1.25
2023-05-05T16:22:55.505Z,3.15
2023-05-05T16:25:24.521Z,4.28
2023-05-05T16:27:56.604Z,2.08
2023-05-05T16:30:28.151Z,5.95
2023-05-05T16:33:00.975Z,0.93
2023-05-05T16:35:29.450Z,3.20
2023-05-05T16:37:59.982Z,6.05
2023-05-05T16:40:30.200Z,3.10
2023-05-05T16:42:59.318Z,5.10
2023-05-05T16:45:33.562Z,1.38
2023-05-05T16:48:02.425Z,8.82
2023-05-05T16:50:31.816Z,3.95
2023-05-05T16:53:05.556Z,10.63
2023-05-05T16:55:36.327Z,3.13
2023-05-05T16:58:06.531Z,2.47
2023-05-05T17:00:40.151Z,2.17
2023-05-05T17:03:08.844Z,4.88
2023-05-05T17:05:39.253Z,3.97
2023-05-05T17:08:08.467Z,6.10
2023-05-05T17:10:37.188Z,2.28
2023-05-05T17:13:05.719Z,6.47
2023-05-05T17:15:34.752Z,1.58
2023-05-05T17:18:05.942Z,5.15
2023-05-05T17:20:36.809Z,2.22
2023-05-05T17:23:08.836Z,3.88
2023-05-05T17:25:38.277Z,6.45
2023-05-05T17:28:08.947Z,3.55
2023-05-05T17:30:38.480Z,2.25
2023-05-05T17:33:09.287Z,3.15
2023-05-05T17:35:38.561Z,2.45
2023-05-05T17:38:07.475Z,3.90
2023-05-05T17:40:38.903Z,5.70
2023-05-05T17:43:11.025Z,6.28
2023-05-05T17:45:43.103Z,5.10
2023-05-05T17:48:17.155Z,1.58
2023-05-05T17:50:46.821Z,1.37
2023-05-05T17:53:16.194Z,3.03
2023-05-05T17:55:46.970Z,2.67
2023-05-05T17:58:17.328Z,2.63
2023-05-05T18:00:46.141Z,4.43
2023-05-05T18:03:16.735Z,2.67
2023-05-05T18:05:45.752Z,2.60
2023-05-05T18:08:14.752Z,2.03
2023-05-05T18:10:44.810Z,1.92
2023-05-05T18:13:14.895Z,5.35
2023-05-05T18:15:46.274Z,3.17
2023-05-05T18:18:17.681Z,5.18
2023-05-05T18:20:46.508Z,4.10
2023-05-05T18:23:17.416Z,3.47
2023-05-05T18:25:49.065Z,3.78
2023-05-05T18:28:18.560Z,3.25
2023-05-05T18:30:47.363Z,4.70
2023-05-05T18:33:17.515Z,4.85
2023-05-05T18:35:46.545Z,1.70
2023-05-05T18:38:15.441Z,4.30
2023-05-05T18:40:46.367Z,4.75
2023-05-05T18:43:15.430Z,4.95
2023-05-05T18:45:44.220Z,4.60
2023-05-05T18:48:13.589Z,2.88
2023-05-05T18:50:51.475Z,5.28
2023-05-05T18:53:20.061Z,4.55
2023-05-05T18:55:49.379Z,6.45
2023-05-05T18:58:20.424Z,5.45
2023-05-05T19:00:52.465Z,5.78
2023-05-05T19:03:22.650Z,2.15
2023-05-05T19:05:52.667Z,5.85
2023-05-05T19:08:24.145Z,1.70
2023-05-05T19:10:53.145Z,3.13
2023-05-05T19:13:22.597Z,4.55
2023-05-05T19:15:53.002Z,3.55
2023-05-05T19:18:22.226Z,3.92
2023-05-05T19:20:52.594Z,4.50
2023-05-05T19:23:21.366Z,4.72
2023-05-05T19:25:52.826Z,2.03
2023-05-05T19:28:23.034Z,3.72
2023-05-05T19:30:54.502Z,3.33
2023-05-05T19:33:23.292Z,4.68
2023-05-05T19:36:01.611Z,3.90
2023-05-05T19:38:30.486Z,2.60
2023-05-05T19:41:00.878Z,5.68
2023-05-05T19:43:30.035Z,4.30
2023-05-05T19:45:59.602Z,3.92
2023-05-05T19:48:31.618Z,9.40
2023-05-05T19:51:04.031Z,7.68
2023-05-05T19:53:33.371Z,5.07
2023-05-05T19:56:07.371Z,5.10
2023-05-05T19:58:56.816Z,10.02
2023-05-05T20:01:31.358Z,5.22
2023-05-05T20:04:03.883Z,8.38
2023-05-05T20:06:40.551Z,5.32
2023-05-05T20:09:10.086Z,8.38
2023-05-05T20:11:42.481Z,4.20
2023-05-05T20:14:11.772Z,5.32
2023-05-05T20:16:42.201Z,4.88
2023-05-05T20:19:14.076Z,3.90
2023-05-05T20:21:47.188Z,4.68
2023-05-05T20:24:18.209Z,5.53
2023-05-05T20:26:47.084Z,3.88
2023-05-05T20:29:16.475Z,3.45
2023-05-05T20:31:48.678Z,4.70
2023-05-05T20:34:17.888Z,5.68
2023-05-05T20:36:49.163Z,2.13
2023-05-05T20:39:18.911Z,2.88
2023-05-05T20:41:48.053Z,4.63
2023-05-05T20:44:17.592Z,4.22
2023-05-05T20:46:46.331Z,3.38
2023-05-05T20:49:16.126Z,4.32
2023-05-05T20:51:45.431Z,3.10
2023-05-05T20:54:16.062Z,6.25
2023-05-05T20:56:46.587Z,2.40
2023-05-05T20:59:17.433Z,3.10
2023-05-05T21:01:46.420Z,3.38
2023-05-05T21:04:20.086Z,2.63
2023-05-05T21:06:48.815Z,5.00
2023-05-05T21:09:21.958Z,8.68
2023-05-05T21:11:50.734Z,7.38
2023-05-05T21:14:20.346Z,6.18
2023-05-05T21:16:51.453Z,5.90
2023-05-05T21:19:21.304Z,5.70
2023-05-05T21:21:53.680Z,6.30
2023-05-05T21:24:24.596Z,5.82
2023-05-05T21:26:53.541Z,6.35
2023-05-05T21:29:23.308Z,4.70
2023-05-05T21:31:52.451Z,5.10
2023-05-05T21:34:23.766Z,3.15
2023-05-05T21:36:52.584Z,4.60
2023-05-05T21:39:23.892Z,4.28
2023-05-05T21:41:55.663Z,3.75
2023-05-05T21:44:25.690Z,5.15
2023-05-05T21:46:54.295Z,4.82
2023-05-05T21:49:24.860Z,4.22
2023-05-05T21:51:56.417Z,5.88
2023-05-05T21:54:29.420Z,2.67
2023-05-05T21:57:07.383Z,4.18
2023-05-05T21:59:36.528Z,1.40
2023-05-05T22:02:06.073Z,6.80
2023-05-05T22:04:35.932Z,1.90
2023-05-05T22:07:05.106Z,5.63
2023-05-05T22:09:33.950Z,3.58
2023-05-05T22:12:08.005Z,3.13
2023-05-05T22:14:38.541Z,3.47
2023-05-05T22:17:09.550Z,2.65
2023-05-05T22:19:38.090Z,3.40
2023-05-05T22:22:07.386Z,3.85
2023-05-05T22:24:36.962Z,3.25
2023-05-05T22:27:07.359Z,2.47
2023-05-05T22:29:37.190Z,4.68
2023-05-05T22:32:09.482Z,3.42
2023-05-05T22:34:39.332Z,5.97
2023-05-05T22:37:11.241Z,7.88
2023-05-05T22:39:42.719Z,5.30
2023-05-05T22:42:13.846Z,6.93
2023-05-05T22:44:43.975Z,9.10
2023-05-05T22:47:13.246Z,8.68
2023-05-05T22:49:49.045Z,6.15
2023-05-05T22:52:19.115Z,6.20
2023-05-05T22:54:50.565Z,5.68
2023-05-05T22:57:20.821Z,8.15
2023-05-05T22:59:50.040Z,6.53
2023-05-05T23:02:21.656Z,11.95
2023-05-05T23:04:51.207Z,6.13
2023-05-05T23:07:20.118Z,7.47
2023-05-05T23:09:51.663Z,7.15
2023-05-05T23:12:23.365Z,7.05
2023-05-05T23:14:52.415Z,7.43
2023-05-05T23:17:22.438Z,3.35
2023-05-05T23:19:51.038Z,5.63
2023-05-05T23:22:21.183Z,3.22
2023-05-05T23:24:51.619Z,2.72
2023-05-05T23:27:22.133Z,4.45
2023-05-05T23:29:52.565Z,4.57
2023-05-05T23:32:21.999Z,6.00
2023-05-05T23:34:52.361Z,4.38
2023-05-05T23:37:20.626Z,12.25
2023-05-05T23:39:49.216Z,5.88
2023-05-05T23:42:17.914Z,6.97
2023-05-05T23:44:55.418Z,4.85
2023-05-05T23:47:24.704Z,7.65
2023-05-05T23:49:53.604Z,7.90
2023-05-05T23:52:22.587Z,7.45
2023-05-05T23:54:52.033Z,8.23
2023-05-05T23:57:21.054Z,4.78
2023-05-05T23:59:52.498Z,4.75
